Time;durP1;ratioP1;P1;durP2;ratioP2;P2;SDS_P1;SDS_P2;PMS_P1;PMS_P2;Temp;Humidity;BMP_temperature;BMP_pressure;BME280_temperature;BME280_humidity;BME280_pressure;Samples;Min_cycle;Max_cycle;Signal;HPM_P1;HPM_P2
2021/08/01 00:01:05;;;;;;;10.02;7.20;;;18.10;99.90;;;;;;5010832;28;20061;-84
2021/08/01 00:03:32;;;;;;;11.05;7.45;;;17.80;99.90;;;;;;5010171;28;20117;-84
2021/08/01 00:06:01;;;;;;;13.45;6.82;;;17.90;99.90;;;;;;5009910;28;20554;-84
2021/08/01 00:08:28;;;;;;;10.45;7.03;;;17.90;99.90;;;;;;5010597;28;20054;-84
2021/08/01 00:11:02;;;;;;;9.25;7.05;;;17.90;99.90;;;;;;5007017;28;20054;-86
2021/08/01 00:13:39;;;;;;;10.23;6.63;;;17.90;99.90;;;;;;5010237;28;20046;-87
2021/08/01 00:16:09;;;;;;;7.25;6.40;;;17.80;99.90;;;;;;5010822;28;20117;-85
2021/08/01 00:18:41;;;;;;;8.65;6.82;;;17.80;99.90;;;;;;5012645;28;20050;-84
2021/08/01 00:21:08;;;;;;;9.45;6.93;;;17.70;99.90;;;;;;5012781;28;20077;-85
2021/08/01 00:23:37;;;;;;;11.60;7.05;;;17.70;99.90;;;;;;5011427;28;20056;-85
2021/08/01 00:26:11;;;;;;;11.45;6.93;;;17.60;99.90;;;;;;5012484;28;20089;-82
2021/08/01 00:28:41;;;;;;;10.20;6.97;;;17.60;99.90;;;;;;5011706;28;20046;-83
2021/08/01 00:31:08;;;;;;;8.88;6.75;;;17.60;99.90;;;;;;5012739;28;20046;-86
2021/08/01 00:33:37;;;;;;;7.30;6.25;;;17.50;99.90;;;;;;5013588;28;20065;-85
2021/08/01 00:36:05;;;;;;;11.43;7.07;;;17.40;99.90;;;;;;5013244;28;20054;-85
2021/08/01 00:38:32;;;;;;;9.57;7.00;;;17.40;99.90;;;;;;5012960;28;20050;-84
2021/08/01 00:40:59;;;;;;;9.10;6.85;;;17.30;99.90;;;;;;5011568;28;20112;-85
2021/08/01 00:43:26;;;;;;;9.63;6.82;;;17.30;99.90;;;;;;5010470;28;20051;-83
2021/08/01 00:45:55;;;;;;;10.15;6.97;;;17.40;99.90;;;;;;5008059;28;20081;-82
2021/08/01 00:48:23;;;;;;;12.20;7.75;;;17.40;99.90;;;;;;5009726;28;20165;-84
2021/08/01 00:50:50;;;;;;;11.70;7.32;;;17.40;99.90;;;;;;5011577;28;20042;-84
2021/08/01 00:53:17;;;;;;;10.82;7.35;;;17.40;99.90;;;;;;5011694;28;20042;-85
2021/08/01 00:55:45;;;;;;;10.10;7.60;;;17.40;99.90;;;;;;5013206;28;20050;-85
2021/08/01 00:58:12;;;;;;;11.65;7.03;;;17.40;99.90;;;;;;5010786;28;20054;-82
2021/08/01 01:01:13;;;;;;;14.45;7.65;;;17.40;99.90;;;;;;5010250;28;20050;-85
2021/08/01 01:03:53;;;;;;;9.48;6.55;;;17.40;99.90;;;;;;4954011;28;20486;-85
2021/08/01 01:06:26;;;;;;;10.75;6.75;;;17.40;99.90;;;;;;5003480;28;20046;-84
2021/08/01 01:08:58;;;;;;;10.18;6.70;;;17.40;99.90;;;;;;5004730;28;20081;-82
2021/08/01 01:11:29;;;;;;;10.57;7.18;;;17.40;99.90;;;;;;5000077;28;20422;-84
2021/08/01 01:13:57;;;;;;;8.32;6.57;;;17.30;99.90;;;;;;5000866;28;20113;-84
2021/08/01 01:16:26;;;;;;;9.68;6.82;;;17.30;99.90;;;;;;5001226;28;20145;-84
2021/08/01 01:18:59;;;;;;;8.75;6.53;;;17.30;99.90;;;;;;5001776;28;20133;-84
2021/08/01 01:21:55;;;;;;;10.52;7.55;;;17.30;99.90;;;;;;5017727;28;20077;-87
2021/08/01 01:24:26;;;;;;;12.63;6.82;;;17.30;99.90;;;;;;5018132;28;20038;-89
2021/08/01 01:27:03;;;;;;;12.60;7.72;;;17.40;99.90;;;;;;5012712;28;20051;-85
2021/08/01 01:29:38;;;;;;;9.15;7.00;;;17.40;99.90;;;;;;5009744;28;20058;-86
2021/08/01 01:32:10;;;;;;;7.40;6.38;;;17.50;99.90;;;;;;5006948;28;20050;-87
2021/08/01 01:34:59;;;;;;;11.18;6.80;;;17.50;99.90;;;;;;5006492;28;20077;-84
2021/08/01 01:37:29;;;;;;;9.80;6.50;;;17.60;99.90;;;;;;5003851;28;20085;-84
2021/08/01 01:39:59;;;;;;;10.07;6.32;;;17.60;99.90;;;;;;5006175;28;20081;-85
2021/08/01 01:42:26;;;;;;;10.43;6.50;;;17.70;99.90;;;;;;5006048;28;20106;-83
2021/08/01 01:44:54;;;;;;;8.07;6.35;;;17.80;99.90;;;;;;5004756;28;20054;-83
2021/08/01 01:47:22;;;;;;;9.30;6.63;;;17.80;99.90;;;;;;5003846;28;20515;-82
2021/08/01 01:49:55;;;;;;;9.27;6.60;;;17.80;99.90;;;;;;5004811;28;20110;-83
2021/08/01 01:52:24;;;;;;;11.90;6.30;;;17.70;99.90;;;;;;5010664;28;20547;-86
2021/08/01 01:54:53;;;;;;;10.18;6.95;;;17.70;99.90;;;;;;5009145;28;20109;-85
2021/08/01 01:57:21;;;;;;;7.78;6.57;;;17.70;99.90;;;;;;5008015;28;20050;-84
2021/08/01 01:59:50;;;;;;;9.38;7.22;;;17.70;99.90;;;;;;5007066;28;20085;-85
2021/08/01 02:02:20;;;;;;;7.75;6.70;;;17.70;99.90;;;;;;5012640;28;20077;-85
2021/08/01 02:04:47;;;;;;;7.85;6.40;;;17.70;99.90;;;;;;5014030;28;20085;-84
2021/08/01 02:07:14;;;;;;;11.05;7.00;;;17.80;99.90;;;;;;5013932;28;20046;-84
2021/08/01 02:09:47;;;;;;;9.10;7.35;;;17.70;99.90;;;;;;5014552;28;20125;-84
2021/08/01 02:12:20;;;;;;;9.50;7.32;;;17.70;99.90;;;;;;5010269;28;20050;-84
2021/08/01 02:15:00;;;;;;;10.18;7.70;;;17.50;99.90;;;;;;5009026;28;20408;-83
2021/08/01 02:17:31;;;;;;;13.20;7.75;;;17.50;99.90;;;;;;5008577;28;20081;-85
2021/08/01 02:20:01;;;;;;;12.50;9.07;;;17.40;99.90;;;;;;5011521;28;20138;-85
2021/08/01 02:22:29;;;;;;;13.00;8.30;;;17.20;99.90;;;;;;5009951;28;20074;-83
2021/08/01 02:24:57;;;;;;;11.63;8.65;;;17.10;99.90;;;;;;5008049;28;20553;-85
2021/08/01 02:27:26;;;;;;;13.13;9.50;;;17.10;99.90;;;;;;5008129;28;20049;-85
2021/08/01 02:29:53;;;;;;;10.50;8.73;;;17.10;99.90;;;;;;5006775;28;20265;-83
2021/08/01 02:32:22;;;;;;;13.00;8.93;;;17.00;99.90;;;;;;5002302;28;20129;-85
2021/08/01 02:34:49;;;;;;;12.85;9.50;;;16.90;99.90;;;;;;4999320;28;20137;-84
2021/08/01 02:37:17;;;;;;;16.08;8.95;;;16.90;99.90;;;;;;5000414;28;20085;-82
2021/08/01 02:39:45;;;;;;;12.10;9.00;;;16.90;99.90;;;;;;5000698;28;20054;-84
2021/08/01 02:42:14;;;;;;;11.35;8.65;;;16.90;99.90;;;;;;5000227;28;20078;-84
2021/08/01 02:44:44;;;;;;;11.35;8.07;;;16.90;99.90;;;;;;5007595;28;20064;-84
2021/08/01 02:47:15;;;;;;;11.45;8.20;;;16.90;99.90;;;;;;5016153;28;20051;-83
2021/08/01 02:49:46;;;;;;;12.70;8.77;;;16.90;99.90;;;;;;5016135;28;20053;-87
2021/08/01 02:52:16;;;;;;;10.60;8.63;;;16.90;99.90;;;;;;5015017;28;20050;-87
2021/08/01 02:55:07;;;;;;;12.25;9.15;;;16.90;99.90;;;;;;5006157;28;20078;-83
2021/08/01 02:57:35;;;;;;;10.60;9.32;;;16.90;99.90;;;;;;5005672;28;20074;-84
2021/08/01 03:00:05;;;;;;;12.20;9.55;;;16.90;99.90;;;;;;5008236;28;20058;-85
2021/08/01 03:02:33;;;;;;;13.90;9.55;;;16.90;99.90;;;;;;5007806;28;20066;-84
2021/08/01 03:05:01;;;;;;;13.48;9.57;;;16.90;99.90;;;;;;5003992;28;20046;-85
2021/08/01 03:07:28;;;;;;;12.18;9.75;;;16.90;99.90;;;;;;5008875;28;20065;-86
2021/08/01 03:09:55;;;;;;;15.00;9.48;;;16.90;99.90;;;;;;5007496;28;20080;-84
2021/08/01 03:12:22;;;;;;;10.52;9.10;;;16.80;99.90;;;;;;5007647;28;20107;-86
2021/08/01 03:14:49;;;;;;;11.77;8.38;;;16.80;99.90;;;;;;5005760;28;20144;-86
2021/08/01 03:17:17;;;;;;;12.60;9.45;;;16.80;99.90;;;;;;5005538;28;20137;-86
2021/08/01 03:19:44;;;;;;;16.40;9.82;;;16.80;99.90;;;;;;5003603;28;20137;-83
2021/08/01 03:22:11;;;;;;;15.13;9.95;;;16.80;99.90;;;;;;5004322;28;20085;-85
2021/08/01 03:24:38;;;;;;;11.75;9.70;;;16.80;99.90;;;;;;5004975;28;20110;-85
2021/08/01 03:27:05;;;;;;;13.32;9.48;;;16.80;99.90;;;;;;5004301;28;20058;-85
2021/08/01 03:29:32;;;;;;;14.15;10.32;;;16.90;99.90;;;;;;5003867;28;20131;-85
2021/08/01 03:31:59;;;;;;;13.65;10.23;;;16.90;99.90;;;;;;5005547;28;20053;-86
2021/08/01 03:34:27;;;;;;;15.80;9.68;;;16.80;99.90;;;;;;5005638;28;20080;-85
2021/08/01 03:36:54;;;;;;;11.70;10.13;;;16.80;99.90;;;;;;5005282;28;20141;-86
2021/08/01 03:39:24;;;;;;;13.75;10.20;;;16.80;99.90;;;;;;5005881;28;20074;-84
2021/08/01 03:41:51;;;;;;;12.70;10.40;;;16.70;99.90;;;;;;5005267;28;20097;-84
2021/08/01 03:44:17;;;;;;;14.43;10.88;;;16.60;99.90;;;;;;5004721;28;20086;-85
2021/08/01 03:46:44;;;;;;;14.90;10.40;;;16.60;99.90;;;;;;5004458;28;20085;-87
2021/08/01 03:49:12;;;;;;;14.15;10.40;;;16.70;99.90;;;;;;5006298;28;20186;-85
2021/08/01 03:51:40;;;;;;;16.17;10.55;;;16.70;99.90;;;;;;5006279;28;20115;-85
2021/08/01 03:54:07;;;;;;;17.23;10.80;;;16.70;99.90;;;;;;5003925;28;20074;-84
2021/08/01 03:56:39;;;;;;;19.83;11.10;;;16.70;99.90;;;;;;5003249;28;20065;-84
2021/08/01 03:59:06;;;;;;;12.82;10.30;;;16.70;99.90;;;;;;5004396;28;20134;-85
2021/08/01 04:01:33;;;;;;;12.48;10.07;;;16.70;99.90;;;;;;5002938;28;20078;-85
2021/08/01 04:03:59;;;;;;;16.27;10.55;;;16.80;99.90;;;;;;5004342;28;20057;-84
2021/08/01 04:06:26;;;;;;;13.23;10.68;;;16.70;99.90;;;;;;5006041;28;20054;-84
2021/08/01 04:08:54;;;;;;;13.63;11.00;;;16.70;99.90;;;;;;5004248;28;20109;-85
2021/08/01 04:11:21;;;;;;;15.85;11.30;;;16.70;99.90;;;;;;5004933;28;20050;-84
2021/08/01 04:13:48;;;;;;;14.90;11.45;;;16.70;99.90;;;;;;5004616;28;20077;-84
2021/08/01 04:16:15;;;;;;;14.27;11.13;;;16.70;99.90;;;;;;5004529;28;20106;-85
2021/08/01 04:18:42;;;;;;;15.10;11.35;;;16.70;99.90;;;;;;5008014;28;20054;-85
2021/08/01 04:21:09;;;;;;;16.55;11.60;;;16.70;99.90;;;;;;5007969;28;20093;-84
2021/08/01 04:23:36;;;;;;;15.70;11.60;;;16.70;99.90;;;;;;5007837;28;20085;-85
2021/08/01 04:26:06;;;;;;;15.48;11.43;;;16.60;99.90;;;;;;5004688;28;20090;-85
2021/08/01 04:28:34;;;;;;;16.60;11.57;;;16.60;99.90;;;;;;5041881;23;20141;-79
2021/08/01 04:31:00;;;;;;;17.60;11.85;;;16.60;99.90;;;;;;5028530;28;20092;-79
2021/08/01 04:33:28;;;;;;;18.30;12.38;;;16.50;99.90;;;;;;5036499;28;20533;-78
2021/08/01 04:35:55;;;;;;;18.88;13.05;;;16.50;99.90;;;;;;5035755;28;20136;-79
2021/08/01 04:38:22;;;;;;;20.90;12.43;;;16.60;99.90;;;;;;5038002;28;20104;-79
2021/08/01 04:40:49;;;;;;;16.90;12.45;;;16.60;99.90;;;;;;5035968;28;20131;-78
2021/08/01 04:43:17;;;;;;;20.00;13.05;;;16.60;99.90;;;;;;5035454;28;20056;-78
2021/08/01 04:45:44;;;;;;;14.93;11.75;;;16.60;99.90;;;;;;5033942;28;20092;-79
2021/08/01 04:48:11;;;;;;;18.63;12.20;;;16.70;99.90;;;;;;5032927;28;20049;-78
2021/08/01 04:50:38;;;;;;;17.02;12.15;;;16.70;99.90;;;;;;5032970;28;20087;-78
2021/08/01 04:53:05;;;;;;;16.65;12.15;;;16.70;99.90;;;;;;5032794;28;20081;-79
2021/08/01 04:55:32;;;;;;;14.40;11.88;;;16.70;99.90;;;;;;5039068;28;20085;-79
2021/08/01 04:57:58;;;;;;;17.85;12.48;;;16.80;99.90;;;;;;5038923;28;20050;-79
2021/08/01 05:00:27;;;;;;;20.17;12.23;;;16.80;99.90;;;;;;5035579;28;20537;-78
2021/08/01 05:02:54;;;;;;;19.40;12.85;;;16.80;99.90;;;;;;5034677;28;20413;-79
2021/08/01 05:05:20;;;;;;;17.98;12.07;;;16.80;99.90;;;;;;5034312;28;20145;-78
2021/08/01 05:07:47;;;;;;;17.17;12.27;;;16.80;99.90;;;;;;5036293;28;20054;-79
2021/08/01 05:10:14;;;;;;;16.75;12.05;;;16.80;99.90;;;;;;5038270;28;20121;-79
2021/08/01 05:12:41;;;;;;;16.30;11.52;;;16.70;99.90;;;;;;5043329;28;20073;-79
2021/08/01 05:15:09;;;;;;;21.75;13.18;;;16.80;99.90;;;;;;5039587;28;20084;-79
2021/08/01 05:17:37;;;;;;;15.85;11.60;;;16.80;99.90;;;;;;5033055;28;20049;-78
2021/08/01 05:20:04;;;;;;;14.55;11.43;;;16.90;99.90;;;;;;5032772;28;20136;-78
2021/08/01 05:22:31;;;;;;;16.30;11.38;;;16.90;99.90;;;;;;5036621;28;20128;-79
2021/08/01 05:24:58;;;;;;;16.30;11.15;;;16.90;99.90;;;;;;5037907;28;20049;-79
2021/08/01 05:27:25;;;;;;;16.38;10.88;;;16.90;99.90;;;;;;5033203;28;20141;-79
2021/08/01 05:29:52;;;;;;;18.00;11.27;;;16.80;99.90;;;;;;5032198;28;20498;-78
2021/08/01 05:32:19;;;;;;;16.60;10.95;;;16.80;99.90;;;;;;5032353;28;20051;-78
2021/08/01 05:34:47;;;;;;;15.55;10.32;;;16.90;99.90;;;;;;5031999;28;20136;-78
2021/08/01 05:37:14;;;;;;;13.57;10.13;;;16.90;99.90;;;;;;5031977;28;20055;-77
2021/08/01 05:39:41;;;;;;;13.30;10.38;;;17.10;99.90;;;;;;5031903;28;20053;-77
2021/08/01 05:42:07;;;;;;;14.60;8.90;;;17.20;99.90;;;;;;5031897;28;20081;-78
2021/08/01 05:44:34;;;;;;;10.73;8.68;;;17.50;99.90;;;;;;5031827;28;20045;-77
2021/08/01 05:47:06;;;;;;;12.98;9.00;;;18.00;99.90;;;;;;5031947;28;20348;-78
2021/08/01 05:49:33;;;;;;;12.25;8.00;;;18.60;99.90;;;;;;5032288;28;20053;-79
2021/08/01 05:52:01;;;;;;;11.05;7.55;;;18.90;99.90;;;;;;5031940;28;20073;-79
2021/08/01 05:54:28;;;;;;;11.73;7.35;;;19.60;99.90;;;;;;5032909;28;20049;-79
2021/08/01 05:56:55;;;;;;;10.63;6.85;;;20.20;99.90;;;;;;5036388;28;20498;-79
2021/08/01 05:59:22;;;;;;;10.77;7.30;;;20.90;99.90;;;;;;5034465;28;20136;-79
2021/08/01 06:01:49;;;;;;;13.52;7.13;;;21.60;99.90;;;;;;5032113;28;20088;-78
2021/08/01 06:04:16;;;;;;;9.70;6.75;;;21.90;99.90;;;;;;5031317;28;20045;-78
2021/08/01 06:06:42;;;;;;;13.05;7.15;;;22.20;99.90;;;;;;5031524;28;20049;-78
2021/08/01 06:09:11;;;;;;;10.75;6.13;;;22.40;99.90;;;;;;5032201;28;20077;-78
2021/08/01 06:11:38;;;;;;;9.18;6.07;;;22.80;99.90;;;;;;5032371;28;20137;-77
2021/08/01 06:14:05;;;;;;;10.23;6.45;;;23.30;99.90;;;;;;5034819;28;20045;-78
2021/08/01 06:16:31;;;;;;;9.73;6.55;;;23.70;99.90;;;;;;5036413;28;20132;-79
2021/08/01 06:18:58;;;;;;;13.63;7.20;;;23.40;99.90;;;;;;5034149;28;20136;-79
2021/08/01 06:21:27;;;;;;;10.85;6.68;;;23.40;99.90;;;;;;5035255;28;20133;-81
2021/08/01 06:23:54;;;;;;;11.02;6.63;;;23.30;99.90;;;;;;5037478;28;20136;-79
2021/08/01 06:26:23;;;;;;;13.35;7.30;;;23.20;99.90;;;;;;5038806;28;20096;-80
2021/08/01 06:28:51;;;;;;;12.38;6.65;;;23.10;99.90;;;;;;5037612;28;20049;-78
2021/08/01 06:31:18;;;;;;;10.48;6.45;;;23.20;99.90;;;;;;5033196;28;20480;-79
2021/08/01 06:33:45;;;;;;;12.93;6.53;;;23.30;99.90;;;;;;5032732;28;20136;-79
2021/08/01 06:36:14;;;;;;;10.50;6.50;;;23.40;99.90;;;;;;5033904;28;20045;-79
2021/08/01 06:38:43;;;;;;;13.18;7.22;;;23.50;99.90;;;;;;5033133;28;20137;-79
2021/08/01 06:41:10;;;;;;;9.98;7.18;;;23.80;99.90;;;;;;5035001;28;20573;-78
2021/08/01 06:43:38;;;;;;;10.20;6.22;;;24.00;99.90;;;;;;5037520;28;20060;-79
2021/08/01 06:46:05;;;;;;;12.20;6.93;;;24.60;99.90;;;;;;5039881;28;20136;-80
2021/08/01 06:48:33;;;;;;;9.93;6.95;;;24.70;99.90;;;;;;5040019;28;20137;-79
2021/08/01 06:51:01;;;;;;;12.07;7.60;;;24.40;99.90;;;;;;5037458;28;20104;-79
2021/08/01 06:53:28;;;;;;;8.60;6.25;;;24.20;99.90;;;;;;5037738;28;20355;-79
2021/08/01 06:55:55;;;;;;;11.02;6.50;;;24.20;99.90;;;;;;5035147;28;20045;-77
2021/08/01 06:58:22;;;;;;;12.23;6.85;;;23.90;99.90;;;;;;5035167;28;20136;-78
2021/08/01 07:00:52;;;;;;;10.63;6.65;;;23.40;99.90;;;;;;5035012;28;20409;-78
2021/08/01 07:03:20;;;;;;;14.73;7.55;;;23.00;99.90;;;;;;5037634;28;20136;-82
2021/08/01 07:05:47;;;;;;;11.60;6.80;;;22.70;99.90;;;;;;5037135;28;20132;-78
2021/08/01 07:08:14;;;;;;;13.93;6.55;;;22.30;99.90;;;;;;5034770;28;20049;-78
2021/08/01 07:10:40;;;;;;;12.32;7.10;;;22.00;99.90;;;;;;5035219;28;20136;-77
2021/08/01 07:13:08;;;;;;;10.88;6.60;;;21.80;99.90;;;;;;5034115;28;20132;-79
2021/08/01 07:15:37;;;;;;;13.63;6.82;;;21.90;99.90;;;;;;5034247;28;20501;-77
2021/08/01 07:18:06;;;;;;;10.55;6.65;;;21.80;99.90;;;;;;5034377;28;20422;-78
2021/08/01 07:20:33;;;;;;;10.18;6.78;;;21.60;99.90;;;;;;5034616;28;20131;-77
2021/08/01 07:23:00;;;;;;;9.45;5.60;;;21.80;99.90;;;;;;5034187;28;20129;-77
2021/08/01 07:25:27;;;;;;;17.00;6.00;;;22.10;99.90;;;;;;5034315;28;20407;-76
2021/08/01 07:27:55;;;;;;;12.48;6.18;;;22.70;99.90;;;;;;5033857;28;20056;-77
2021/08/01 07:30:22;;;;;;;11.88;5.63;;;23.40;99.90;;;;;;5034211;28;20400;-77
2021/08/01 07:32:49;;;;;;;9.93;5.40;;;23.90;99.90;;;;;;5034161;28;20143;-78
2021/08/01 07:35:17;;;;;;;10.38;5.40;;;24.10;99.90;;;;;;5034577;28;20425;-79
2021/08/01 07:37:45;;;;;;;9.18;5.28;;;24.10;99.90;;;;;;5034695;28;20051;-78
2021/08/01 07:40:12;;;;;;;9.48;5.97;;;23.90;99.90;;;;;;5034418;28;20144;-79
2021/08/01 07:42:39;;;;;;;11.18;5.55;;;23.80;99.90;;;;;;5034356;28;20141;-79
2021/08/01 07:45:11;;;;;;;8.05;5.15;;;23.50;99.90;;;;;;5033806;28;20141;-76
2021/08/01 07:47:38;;;;;;;8.90;5.53;;;23.80;99.90;;;;;;5033893;28;20136;-77
2021/08/01 07:50:06;;;;;;;10.20;5.88;;;24.00;99.90;;;;;;5034223;28;20080;-76
2021/08/01 07:52:35;;;;;;;10.40;5.90;;;24.50;99.90;;;;;;5033886;28;20132;-77
2021/08/01 07:55:02;;;;;;;10.90;5.50;;;25.00;99.90;;;;;;5034662;28;20485;-77
2021/08/01 07:57:30;;;;;;;9.35;5.60;;;25.20;99.90;;;;;;5034398;28;20053;-77
2021/08/01 08:00:01;;;;;;;9.60;5.32;;;25.00;99.90;;;;;;5033682;28;20212;-77
2021/08/01 08:02:29;;;;;;;8.85;5.40;;;25.00;99.90;;;;;;5033858;28;20136;-78
2021/08/01 08:04:56;;;;;;;8.63;5.22;;;25.40;99.90;;;;;;5033949;28;20056;-77
2021/08/01 08:07:22;;;;;;;10.82;5.25;;;25.70;99.90;;;;;;5033982;28;20057;-79
2021/08/01 08:09:51;;;;;;;9.05;4.95;;;26.20;99.90;;;;;;5034100;28;20076;-77
2021/08/01 08:12:18;;;;;;;7.10;4.38;;;26.70;99.90;;;;;;5024556;28;20042;-77
2021/08/01 08:14:45;;;;;;;11.38;4.65;;;26.90;99.90;;;;;;5012344;28;20048;-78
2021/08/01 08:17:12;;;;;;;8.35;5.65;;;26.90;99.90;;;;;;5012617;28;20053;-77
2021/08/01 08:19:39;;;;;;;9.27;5.13;;;26.90;99.90;;;;;;5012950;28;20049;-78
2021/08/01 08:22:07;;;;;;;7.50;5.35;;;26.50;99.90;;;;;;5012694;28;20057;-77
2021/08/01 08:24:34;;;;;;;11.05;5.10;;;25.80;99.90;;;;;;5012717;28;20582;-77
2021/08/01 08:27:02;;;;;;;8.93;5.25;;;25.40;99.90;;;;;;5017258;28;20049;-78
2021/08/01 08:29:29;;;;;;;7.18;4.93;;;24.70;99.90;;;;;;5015361;28;20284;-78
2021/08/01 08:31:58;;;;;;;9.05;5.22;;;23.90;99.90;;;;;;5013866;28;20133;-78
2021/08/01 08:34:25;;;;;;;7.95;4.93;;;23.40;99.90;;;;;;5013414;28;20558;-78
2021/08/01 08:37:00;;;;;;;7.47;5.15;;;23.00;99.90;;;;;;5013339;28;20069;-79
2021/08/01 08:39:27;;;;;;;9.07;5.63;;;22.70;99.90;;;;;;5013636;28;20049;-78
2021/08/01 08:41:58;;;;;;;8.63;5.15;;;22.40;99.90;;;;;;5015142;28;20475;-78
2021/08/01 08:44:27;;;;;;;6.50;5.10;;;22.20;99.90;;;;;;5014264;28;20042;-78
2021/08/01 08:46:55;;;;;;;8.43;5.32;;;22.20;99.90;;;;;;5012964;28;20137;-78
2021/08/01 08:49:23;;;;;;;6.80;5.05;;;21.90;99.90;;;;;;5012509;28;20459;-78
2021/08/01 08:51:53;;;;;;;8.43;4.80;;;21.90;99.90;;;;;;5013744;28;20049;-78
2021/08/01 08:54:26;;;;;;;6.57;4.88;;;22.40;99.90;;;;;;5011756;28;20041;-78
2021/08/01 08:56:56;;;;;;;9.65;5.35;;;22.90;99.90;;;;;;5012563;28;20494;-78
2021/08/01 08:59:25;;;;;;;8.32;5.38;;;22.60;99.90;;;;;;5013534;28;20057;-79
2021/08/01 09:01:53;;;;;;;9.07;5.38;;;22.30;99.90;;;;;;5011874;28;20060;-77
2021/08/01 09:04:22;;;;;;;8.68;4.82;;;22.50;99.90;;;;;;5011144;28;20128;-79
2021/08/01 09:06:50;;;;;;;7.65;5.03;;;22.70;99.90;;;;;;5011644;28;20141;-77
2021/08/01 09:09:17;;;;;;;6.65;4.50;;;22.80;99.90;;;;;;5028426;28;20073;-78
2021/08/01 09:11:44;;;;;;;8.85;4.38;;;23.20;99.90;;;;;;5031762;28;20132;-79
2021/08/01 09:14:19;;;;;;;6.45;4.22;;;23.90;99.90;;;;;;5031672;28;20128;-78
2021/08/01 09:16:49;;;;;;;7.55;4.60;;;24.20;99.90;;;;;;5032495;28;20053;-79
2021/08/01 09:19:32;;;;;;;6.25;4.53;;;24.50;99.90;;;;;;5032281;28;20056;-78
2021/08/01 09:22:14;;;;;;;5.90;4.32;;;24.00;99.90;;;;;;5032101;28;20045;-79
2021/08/01 09:24:41;;;;;;;6.38;4.13;;;23.30;99.90;;;;;;5032652;28;20545;-78
2021/08/01 09:27:08;;;;;;;5.82;3.97;;;22.60;99.90;;;;;;5032007;28;20136;-78
2021/08/01 09:29:49;;;;;;;5.35;3.88;;;22.60;99.90;;;;;;5032341;28;20148;-78
2021/08/01 09:32:16;;;;;;;7.25;4.10;;;22.90;99.90;;;;;;5032353;28;20144;-78
2021/08/01 09:34:48;;;;;;;10.45;3.90;;;23.20;99.90;;;;;;5032141;28;20472;-79
2021/08/01 09:37:28;;;;;;;6.25;4.13;;;23.40;99.90;;;;;;5032310;28;20478;-78
2021/08/01 09:40:06;;;;;;;6.30;4.75;;;23.00;99.90;;;;;;5033483;28;20132;-79
2021/08/01 09:42:43;;;;;;;7.18;4.60;;;22.40;99.90;;;;;;5033931;28;20055;-77
2021/08/01 09:45:15;;;;;;;7.70;4.80;;;22.30;99.90;;;;;;5032743;28;20132;-79
2021/08/01 09:47:42;;;;;;;9.38;5.18;;;22.60;99.90;;;;;;5033496;28;20480;-79
2021/08/01 09:50:12;;;;;;;7.65;5.05;;;22.90;99.90;;;;;;5033097;28;20083;-79
2021/08/01 09:52:39;;;;;;;8.88;4.90;;;23.30;99.90;;;;;;5032146;28;20046;-79
2021/08/01 09:55:15;;;;;;;9.82;5.00;;;23.50;99.90;;;;;;5032608;28;20046;-79
2021/08/01 09:57:50;;;;;;;8.32;5.05;;;23.50;99.90;;;;;;5033942;28;20060;-78
2021/08/01 10:00:17;;;;;;;7.90;4.60;;;23.40;99.90;;;;;;5031927;28;20425;-78
2021/08/01 10:02:44;;;;;;;5.35;4.35;;;23.60;99.90;;;;;;5033941;28;20136;-77
2021/08/01 10:05:18;;;;;;;7.60;4.72;;;23.70;99.90;;;;;;5033479;28;20505;-80
2021/08/01 10:07:46;;;;;;;5.30;4.57;;;23.40;99.90;;;;;;5032359;28;20128;-80
2021/08/01 10:10:18;;;;;;;6.07;4.57;;;23.30;99.90;;;;;;5033572;28;20057;-79
2021/08/01 10:12:45;;;;;;;7.43;4.72;;;23.20;99.90;;;;;;5034180;28;20056;-78
2021/08/01 10:15:13;;;;;;;8.32;5.05;;;23.30;99.90;;;;;;5032530;28;20056;-79
2021/08/01 10:17:39;;;;;;;7.10;5.00;;;23.40;99.90;;;;;;5031451;28;20140;-79
2021/08/01 10:20:09;;;;;;;10.35;4.80;;;23.70;99.90;;;;;;5036424;28;20083;-80
2021/08/01 10:22:40;;;;;;;8.30;4.60;;;24.10;99.90;;;;;;5036684;28;20049;-79
2021/08/01 10:25:10;;;;;;;9.02;5.00;;;24.40;99.90;;;;;;5031980;28;20045;-79
2021/08/01 10:27:41;;;;;;;6.32;4.78;;;24.60;99.90;;;;;;5031010;28;20053;-78
2021/08/01 10:30:08;;;;;;;9.90;4.82;;;24.70;99.90;;;;;;5031186;28;20055;-78
2021/08/01 10:32:40;;;;;;;7.10;4.25;;;24.70;99.90;;;;;;5011079;28;20132;-79
2021/08/01 10:35:12;;;;;;;6.45;4.68;;;24.40;99.90;;;;;;5007500;28;20128;-80
2021/08/01 10:37:48;;;;;;;7.65;4.63;;;24.40;99.90;;;;;;5010207;28;20060;-79
2021/08/01 10:40:18;;;;;;;10.10;4.80;;;24.40;99.90;;;;;;5009011;28;20077;-80
2021/08/01 10:42:50;;;;;;;7.60;4.55;;;24.20;99.90;;;;;;5010001;28;20411;-78
2021/08/01 10:45:19;;;;;;;7.55;4.13;;;23.80;99.90;;;;;;5009757;28;20406;-78
2021/08/01 10:47:49;;;;;;;5.85;4.82;;;23.40;99.90;;;;;;5010276;28;20053;-78
2021/08/01 10:50:19;;;;;;;6.53;4.68;;;23.20;99.90;;;;;;5010710;28;20050;-78
2021/08/01 10:52:47;;;;;;;9.38;5.10;;;23.20;99.90;;;;;;5010985;28;20133;-77
2021/08/01 10:55:22;;;;;;;8.32;4.28;;;23.00;99.90;;;;;;5011256;28;20038;-77
2021/08/01 10:58:20;;;;;;;6.88;4.38;;;23.00;99.90;;;;;;5008272;28;20125;-77
2021/08/01 11:01:03;;;;;;;6.15;4.18;;;23.10;99.90;;;;;;4917642;29;20132;-77
2021/08/01 11:03:32;;;;;;;7.53;4.50;;;23.10;99.90;;;;;;4995601;28;20412;-77
2021/08/01 11:05:59;;;;;;;6.55;5.10;;;23.20;99.90;;;;;;5009999;28;20133;-77
2021/08/01 11:08:28;;;;;;;9.10;4.80;;;23.30;99.90;;;;;;5009647;28;20089;-78
2021/08/01 11:11:15;;;;;;;8.00;4.60;;;23.50;99.90;;;;;;5009419;28;20045;-77
2021/08/01 11:13:44;;;;;;;9.43;4.85;;;23.60;99.90;;;;;;5008662;28;20053;-78
2021/08/01 11:16:13;;;;;;;8.50;5.30;;;23.20;99.90;;;;;;5009464;28;20042;-78
2021/08/01 11:18:42;;;;;;;9.18;5.40;;;22.80;99.90;;;;;;5009824;28;20076;-78
2021/08/01 11:21:10;;;;;;;10.50;5.20;;;22.60;99.90;;;;;;5010805;28;20463;-80
2021/08/01 11:24:06;;;;;;;7.90;5.30;;;22.40;99.90;;;;;;5011858;28;20057;-77
2021/08/01 11:32:06;;;;;;;8.85;4.68;;;22.90;99.90;;;;;;5033967;23;20055;-87
2021/08/01 11:34:33;;;;;;;6.47;5.10;;;23.40;99.90;;;;;;4983807;28;20563;-85
2021/08/01 11:37:19;;;;;;;6.90;5.07;;;23.40;99.90;;;;;;4986358;28;20054;-84
2021/08/01 11:39:58;;;;;;;8.52;5.30;;;23.40;99.90;;;;;;4985388;28;20065;-86
2021/08/01 11:42:38;;;;;;;8.35;6.30;;;23.30;99.90;;;;;;4987628;28;20086;-86
2021/08/01 11:45:12;;;;;;;7.45;5.50;;;23.40;99.90;;;;;;4985941;28;20078;-85
2021/08/01 11:48:01;;;;;;;8.50;4.72;;;23.30;99.90;;;;;;4985406;28;20051;-84
2021/08/01 11:50:34;;;;;;;8.68;5.13;;;23.20;99.90;;;;;;4984919;28;20512;-86
2021/08/01 11:53:04;;;;;;;8.00;5.20;;;23.20;99.90;;;;;;4979119;28;20080;-83
2021/08/01 11:55:34;;;;;;;5.95;4.43;;;23.30;99.90;;;;;;4985655;28;20161;-86
2021/08/01 11:58:01;;;;;;;8.40;4.90;;;23.30;99.90;;;;;;4983456;28;20055;-85
2021/08/01 12:00:29;;;;;;;6.88;5.38;;;23.20;99.90;;;;;;4985520;28;20057;-87
2021/08/01 12:03:00;;;;;;;9.18;5.35;;;23.10;99.90;;;;;;4985348;28;20411;-85
2021/08/01 12:05:50;;;;;;;8.80;5.72;;;23.00;99.90;;;;;;4983332;28;20047;-84
2021/08/01 12:08:33;;;;;;;8.88;5.18;;;23.30;99.90;;;;;;4984359;28;20047;-86
2021/08/01 12:11:35;;;;;;;8.57;4.97;;;23.60;99.90;;;;;;4984686;28;20055;-85
2021/08/01 12:14:09;;;;;;;7.28;4.88;;;23.80;99.90;;;;;;4957279;28;20102;-86
2021/08/01 12:16:36;;;;;;;6.40;4.38;;;24.00;99.90;;;;;;4981577;28;20337;-85
2021/08/01 12:19:16;;;;;;;6.22;4.65;;;24.10;99.90;;;;;;4979532;28;20110;-86
2021/08/01 12:21:49;;;;;;;10.70;4.93;;;23.90;99.90;;;;;;4971356;28;20058;-86
2021/08/01 12:24:32;;;;;;;;;;;23.70;99.90;;;;;;4981223;28;20051;-85
2021/08/01 12:27:20;;;;;;;8.40;5.25;;;23.60;99.90;;;;;;4978132;28;19922;-87
2021/08/01 12:29:50;;;;;;;9.65;5.63;;;23.30;99.90;;;;;;4986055;28;20051;-85
2021/08/01 12:32:29;;;;;;;8.35;5.80;;;23.30;99.90;;;;;;4982713;28;20423;-85
2021/08/01 12:35:12;;;;;;;8.25;5.25;;;23.30;99.90;;;;;;4985899;28;20118;-85
2021/08/01 12:37:45;;;;;;;10.93;5.43;;;23.20;99.90;;;;;;4987450;28;20055;-86
2021/08/01 12:40:14;;;;;;;11.95;5.88;;;23.10;99.90;;;;;;4974426;28;20051;-85
2021/08/01 12:43:39;;;;;;;8.30;5.30;;;23.00;99.90;;;;;;4981134;28;20086;-84
2021/08/01 12:48:54;;;;;;;9.82;5.70;;;23.00;99.90;;;;;;5018056;23;20065;-88
2021/08/01 12:51:21;;;;;;;7.57;5.10;;;23.10;99.90;;;;;;5012770;28;20075;-89
2021/08/01 12:53:50;;;;;;;8.15;4.93;;;23.40;99.90;;;;;;5012166;28;20051;-89
2021/08/01 12:56:17;;;;;;;6.65;4.88;;;23.70;99.90;;;;;;5012930;28;20050;-89
2021/08/01 12:58:46;;;;;;;5.85;5.20;;;24.00;99.90;;;;;;5011746;28;20545;-87
2021/08/01 13:01:13;;;;;;;8.13;5.22;;;24.20;99.90;;;;;;5011520;28;20051;-85
2021/08/01 13:03:42;;;;;;;7.03;4.82;;;24.30;99.90;;;;;;5009923;28;20046;-87